Time;durP1;ratioP1;P1;durP2;ratioP2;P2;SDS_P1;SDS_P2;PMS_P1;PMS_P2;Temp;Humidity;BMP_temperature;BMP_pressure;BME280_temperature;BME280_humidity;BME280_pressure;Samples;Min_cycle;Max_cycle;Signal;HPM_P1;HPM_P2
2023/05/11 00:00:28;0.00;0.00;0.62;0.00;0.00;0.62;3.30;2.50;;;27.50;24.70;;;;;;2256805;61;20389;-65
2023/05/11 00:03:13;0.00;0.00;0.62;0.00;0.00;0.62;3.50;3.03;;;27.40;24.70;;;;;;2257808;61;20981;-63
2023/05/11 00:05:57;0.00;0.00;0.62;0.00;0.00;0.62;3.77;2.80;;;27.40;24.70;;;;;;2257638;61;20396;-64
2023/05/11 00:08:42;0.00;0.00;0.62;0.00;0.00;0.62;3.00;2.70;;;27.40;24.70;;;;;;2256970;61;20412;-65
2023/05/11 00:11:26;0.00;0.00;0.62;0.00;0.00;0.62;3.67;3.30;;;27.40;24.70;;;;;;2257426;61;20938;-65
2023/05/11 00:14:12;0.00;0.00;0.62;0.00;0.00;0.62;3.03;2.73;;;27.40;24.70;;;;;;2257298;61;20432;-64
2023/05/11 00:16:57;0.00;0.00;0.62;0.00;0.00;0.62;3.80;3.20;;;27.40;24.70;;;;;;2257443;61;20791;-65
2023/05/11 00:19:42;0.00;0.00;0.62;0.00;0.00;0.62;3.10;2.80;;;27.40;24.80;;;;;;2256562;61;20382;-65
2023/05/11 00:22:26;0.00;0.00;0.62;0.00;0.00;0.62;2.87;2.57;;;27.40;24.80;;;;;;2256843;61;20361;-64
2023/05/11 00:25:11;0.00;0.00;0.62;0.00;0.00;0.62;3.10;2.80;;;27.40;24.80;;;;;;2256825;61;20409;-65
2023/05/11 00:27:56;0.00;0.00;0.62;0.00;0.00;0.62;3.07;2.73;;;27.40;24.80;;;;;;2257622;61;20450;-65
2023/05/11 00:30:43;0.00;0.00;0.62;0.00;0.00;0.62;3.73;3.27;;;27.40;24.80;;;;;;2255879;61;20744;-66
2023/05/11 00:33:28;0.00;0.00;0.62;0.00;0.00;0.62;3.20;2.90;;;27.40;24.80;;;;;;2257350;61;20400;-64
2023/05/11 00:36:12;0.00;0.00;0.62;0.00;0.00;0.62;2.90;2.60;;;27.40;24.80;;;;;;2256801;61;20367;-65
2023/05/11 00:39:00;0.00;0.00;0.62;0.00;0.00;0.62;3.77;2.80;;;27.40;24.80;;;;;;2256657;61;20412;-67
2023/05/11 00:41:45;0.00;0.00;0.62;0.00;0.00;0.62;3.17;2.83;;;27.40;24.80;;;;;;2256624;61;20366;-65
2023/05/11 00:44:29;0.00;0.00;0.62;0.00;0.00;0.62;2.83;2.40;;;27.40;24.80;;;;;;2255923;61;20409;-65
2023/05/11 00:47:15;0.00;0.00;0.62;0.00;0.00;0.62;3.13;2.63;;;27.40;24.80;;;;;;2257118;61;20405;-65
2023/05/11 00:50:00;0.00;0.00;0.62;0.00;0.00;0.62;3.50;2.80;;;27.50;24.90;;;;;;2256229;61;20913;-64
2023/05/11 00:52:46;0.00;0.00;0.62;0.00;0.00;0.62;2.60;2.10;;;27.50;24.90;;;;;;2256377;61;20366;-64
2023/05/11 00:55:31;0.00;0.00;0.62;0.00;0.00;0.62;2.83;2.53;;;27.50;24.90;;;;;;2255966;61;20785;-65
2023/05/11 00:58:16;0.00;0.00;0.62;0.00;0.00;0.62;2.60;2.20;;;27.50;24.90;;;;;;2257114;61;20365;-65
2023/05/11 01:01:00;0.00;0.00;0.62;0.00;0.00;0.62;3.17;2.87;;;27.50;24.90;;;;;;2255105;61;20386;-64
2023/05/11 01:03:47;0.00;0.00;0.62;0.00;0.00;0.62;2.40;2.17;;;27.50;24.90;;;;;;2256368;61;20406;-64
2023/05/11 01:06:45;0.00;0.00;0.62;0.00;0.00;0.62;2.50;2.30;;;27.50;24.90;;;;;;2256234;61;20898;-65
2023/05/11 01:09:45;0.00;0.00;0.62;0.00;0.00;0.62;3.00;2.63;;;27.50;24.90;;;;;;2256087;61;20389;-65
2023/05/11 01:12:43;0.00;0.00;0.62;0.00;0.00;0.62;2.67;2.37;;;27.50;24.90;;;;;;2257048;61;20517;-61
2023/05/11 01:15:36;0.00;0.00;0.62;0.00;0.00;0.62;2.73;2.53;;;27.50;24.90;;;;;;2256439;61;20881;-66
2023/05/11 01:18:29;0.00;0.00;0.62;0.00;0.00;0.62;2.50;2.30;;;27.50;24.80;;;;;;2256505;61;20401;-63
2023/05/11 01:21:18;0.00;0.00;0.62;0.00;0.00;0.62;2.33;2.13;;;27.50;24.80;;;;;;2255842;61;20385;-64
2023/05/11 01:24:42;0.00;0.00;0.62;0.00;0.00;0.62;2.40;2.20;;;27.50;24.80;;;;;;2256086;61;20390;-65
2023/05/11 01:27:47;0.00;0.00;0.62;0.00;0.00;0.62;2.50;2.20;;;27.50;24.80;;;;;;2255688;61;20369;-64
2023/05/11 01:30:41;0.00;0.00;0.62;0.00;0.00;0.62;2.93;2.73;;;27.50;24.80;;;;;;2256587;61;20413;-65
2023/05/11 01:33:32;0.00;0.00;0.62;0.00;0.00;0.62;2.57;2.37;;;27.50;24.80;;;;;;2256823;61;20922;-65
2023/05/11 01:36:19;0.00;0.00;0.62;0.00;0.00;0.62;2.30;2.10;;;27.50;24.80;;;;;;2256760;61;20384;-65
2023/05/11 01:39:09;0.00;0.00;0.62;0.00;0.00;0.62;2.90;2.13;;;27.50;24.80;;;;;;2256994;61;20361;-64
2023/05/11 01:41:57;0.00;0.00;0.62;0.00;0.00;0.62;2.63;2.37;;;27.50;24.80;;;;;;2257500;61;20413;-65
2023/05/11 01:44:49;0.00;0.00;0.62;0.00;0.00;0.62;2.90;2.53;;;27.50;24.90;;;;;;2256692;61;20397;-65
2023/05/11 01:47:37;0.00;0.00;0.62;0.00;0.00;0.62;2.53;2.33;;;27.50;24.80;;;;;;2257340;61;20369;-64
2023/05/11 01:50:24;0.00;0.00;0.62;0.00;0.00;0.62;2.47;2.27;;;27.50;24.90;;;;;;2257146;61;21035;-70
2023/05/11 01:53:11;0.00;0.00;0.62;0.00;0.00;0.62;2.40;1.87;;;27.50;24.90;;;;;;2256589;61;20584;-65
2023/05/11 01:55:57;0.00;0.00;0.62;0.00;0.00;0.62;2.33;2.13;;;27.50;24.80;;;;;;2257334;61;20365;-64
2023/05/11 01:58:42;0.00;0.00;0.62;0.00;0.00;0.62;2.63;2.17;;;27.50;24.90;;;;;;2256292;61;20381;-65
2023/05/11 02:01:29;0.00;0.00;0.62;0.00;0.00;0.62;2.60;2.30;;;27.50;24.90;;;;;;2256828;61;20357;-65
2023/05/11 02:04:18;0.00;0.00;0.62;0.00;0.00;0.62;2.37;2.17;;;27.50;24.90;;;;;;2256776;61;20421;-66
2023/05/11 02:07:05;0.00;0.00;0.62;0.00;0.00;0.62;2.10;1.90;;;27.50;24.90;;;;;;2256654;61;20416;-65
2023/05/11 02:09:52;0.00;0.00;0.62;0.00;0.00;0.62;2.83;2.20;;;27.40;24.80;;;;;;2254110;61;20420;-63
2023/05/11 02:12:38;0.00;0.00;0.62;0.00;0.00;0.62;2.00;1.80;;;27.40;25.40;;;;;;2257148;61;20365;-63
2023/05/11 02:15:24;0.00;0.00;0.62;0.00;0.00;0.62;1.73;1.60;;;27.50;24.90;;;;;;2256602;61;20389;-64
2023/05/11 02:18:13;0.00;0.00;0.62;0.00;0.00;0.62;2.37;2.17;;;27.40;24.80;;;;;;2256706;61;20358;-65
2023/05/11 02:21:01;0.00;0.00;0.62;0.00;0.00;0.62;1.87;1.63;;;27.40;24.80;;;;;;2256036;61;20382;-64
2023/05/11 02:23:48;0.00;0.00;0.62;0.00;0.00;0.62;2.10;1.70;;;27.40;24.80;;;;;;2256670;61;20797;-65
2023/05/11 02:26:34;0.00;0.00;0.62;0.00;0.00;0.62;2.30;2.10;;;27.40;24.90;;;;;;2256552;61;20548;-65
2023/05/11 02:29:20;0.00;0.00;0.62;0.00;0.00;0.62;2.00;1.73;;;27.40;24.80;;;;;;2256026;61;20433;-65
2023/05/11 02:32:11;0.00;0.00;0.62;0.00;0.00;0.62;2.00;1.80;;;27.40;24.90;;;;;;2257307;61;20366;-65
2023/05/11 02:35:00;0.00;0.00;0.62;0.00;0.00;0.62;1.70;1.40;;;27.40;24.80;;;;;;2256416;61;20354;-63
2023/05/11 02:37:48;0.00;0.00;0.62;0.00;0.00;0.62;2.17;1.90;;;27.40;24.90;;;;;;2256925;61;20363;-64
2023/05/11 02:40:41;0.00;0.00;0.62;0.00;0.00;0.62;1.93;1.47;;;27.40;24.90;;;;;;2256217;61;20381;-64
2023/05/11 02:43:34;0.00;0.00;0.62;0.00;0.00;0.62;1.50;1.30;;;27.40;24.90;;;;;;2255826;61;20600;-65
2023/05/11 02:46:26;0.00;0.00;0.62;0.00;0.00;0.62;1.73;1.60;;;27.40;24.90;;;;;;2256555;61;20898;-65
2023/05/11 02:49:12;0.00;0.00;0.62;0.00;0.00;0.62;2.00;1.50;;;27.40;24.90;;;;;;2256350;61;20902;-65
2023/05/11 02:51:59;0.00;0.00;0.62;0.00;0.00;0.62;2.13;1.77;;;27.40;24.90;;;;;;2256604;61;20405;-65
2023/05/11 02:54:50;0.00;0.00;0.62;0.00;0.00;0.62;1.70;1.60;;;27.40;24.90;;;;;;2256360;61;20378;-63
2023/05/11 02:57:35;0.00;0.00;0.62;0.00;0.00;0.62;1.53;1.13;;;27.40;24.90;;;;;;2256198;61;20381;-65
2023/05/11 03:00:23;0.00;0.00;0.62;0.00;0.00;0.62;1.83;1.47;;;27.40;24.90;;;;;;2255968;61;20385;-64
2023/05/11 03:03:08;0.00;0.00;0.62;0.00;0.00;0.62;1.70;1.40;;;27.40;24.90;;;;;;2256428;61;20378;-63
2023/05/11 03:05:53;0.00;0.00;0.62;0.00;0.00;0.62;1.60;1.33;;;27.40;24.90;;;;;;2256488;61;20416;-64
2023/05/11 03:08:39;0.00;0.00;0.62;0.00;0.00;0.62;1.67;1.33;;;27.30;24.90;;;;;;2256364;61;20881;-66
2023/05/11 03:11:26;0.00;0.00;0.62;0.00;0.00;0.62;1.87;1.60;;;27.30;24.90;;;;;;2256364;61;20409;-64
2023/05/11 03:14:10;0.00;0.00;0.62;0.00;0.00;0.62;1.80;1.50;;;27.30;24.90;;;;;;2255741;61;20362;-65
2023/05/11 03:16:57;0.00;0.00;0.62;0.00;0.00;0.62;1.83;1.57;;;27.30;24.90;;;;;;2256568;61;20908;-64
2023/05/11 03:19:42;0.00;0.00;0.62;0.00;0.00;0.62;1.90;1.50;;;27.30;24.90;;;;;;2255264;61;20787;-65
2023/05/11 03:22:30;0.00;0.00;0.62;0.00;0.00;0.62;1.50;1.20;;;27.30;24.90;;;;;;2256411;61;20478;-65
2023/05/11 03:25:16;0.00;0.00;0.62;0.00;0.00;0.62;1.77;1.37;;;27.30;24.90;;;;;;2256821;61;20365;-64
2023/05/11 03:28:03;0.00;0.00;0.62;0.00;0.00;0.62;1.80;1.53;;;27.30;24.90;;;;;;2255844;61;20442;-64
2023/05/11 03:30:52;0.00;0.00;0.62;0.00;0.00;0.62;1.70;1.00;;;27.30;24.90;;;;;;2255989;61;20402;-65
2023/05/11 03:33:37;0.00;0.00;0.62;0.00;0.00;0.62;1.50;1.10;;;27.30;24.90;;;;;;2256821;61;20365;-65
2023/05/11 03:36:25;0.00;0.00;0.62;0.00;0.00;0.62;2.50;1.13;;;27.30;24.90;;;;;;2255830;61;20898;-64
2023/05/11 03:39:11;0.00;0.00;0.62;0.00;0.00;0.62;1.60;1.40;;;27.30;24.90;;;;;;2255906;61;20432;-65
2023/05/11 03:41:59;0.00;0.00;0.62;0.00;0.00;0.62;1.40;1.00;;;27.30;24.90;;;;;;2255545;61;20377;-64
2023/05/11 03:44:47;0.00;0.00;0.62;0.00;0.00;0.62;1.90;1.20;;;27.30;24.90;;;;;;2256085;61;20425;-69
2023/05/11 03:47:33;0.00;0.00;0.62;0.00;0.00;0.62;1.50;1.17;;;27.30;24.90;;;;;;2256424;61;20424;-67
2023/05/11 03:50:20;0.00;0.00;0.62;0.00;0.00;0.62;1.63;1.20;;;27.30;24.90;;;;;;2255261;61;20389;-64
2023/05/11 03:53:05;0.00;0.00;0.62;0.00;0.00;0.62;2.00;1.10;;;27.30;24.90;;;;;;2256404;61;20365;-64
2023/05/11 03:55:51;0.00;0.00;0.62;0.00;0.00;0.62;1.77;1.30;;;27.30;24.90;;;;;;2256702;61;20401;-63
2023/05/11 03:58:39;0.00;0.00;0.62;0.00;0.00;0.62;1.67;1.20;;;27.30;24.90;;;;;;2255950;61;20365;-63
2023/05/11 04:01:25;0.00;0.00;0.62;0.00;0.00;0.62;1.50;1.20;;;27.30;24.90;;;;;;2256865;61;20860;-65
2023/05/11 04:04:10;0.00;0.00;0.62;0.00;0.00;0.62;1.70;1.03;;;27.30;24.90;;;;;;2255648;61;20906;-63
2023/05/11 04:06:56;0.00;0.00;0.62;0.00;0.00;0.62;1.70;1.20;;;27.20;24.90;;;;;;2256890;61;20439;-64
2023/05/11 04:09:41;0.00;0.00;0.62;0.00;0.00;0.62;1.60;1.00;;;27.20;24.80;;;;;;2256071;61;20917;-64
2023/05/11 04:12:25;0.00;0.00;0.62;0.00;0.00;0.62;1.50;1.20;;;27.20;24.80;;;;;;2256102;61;20370;-65
2023/05/11 04:15:11;0.00;0.00;0.62;0.00;0.00;0.62;1.50;0.90;;;27.20;24.90;;;;;;2256136;61;20357;-65
2023/05/11 04:17:57;0.00;0.00;0.62;0.00;0.00;0.62;1.53;1.10;;;27.20;24.80;;;;;;2256882;61;20374;-63
2023/05/11 04:20:42;0.00;0.00;0.62;0.00;0.00;0.62;1.60;1.10;;;27.20;24.90;;;;;;2255553;61;20946;-64
2023/05/11 04:23:26;0.00;0.00;0.62;0.00;0.00;0.62;1.50;1.10;;;27.20;24.80;;;;;;2255908;61;20393;-64
2023/05/11 04:26:11;0.00;0.00;0.62;0.00;0.00;0.62;1.40;1.00;;;27.20;24.80;;;;;;2256328;61;20440;-64
2023/05/11 04:28:55;0.00;0.00;0.62;0.00;0.00;0.62;1.50;1.00;;;27.20;24.80;;;;;;2256601;61;20365;-65
2023/05/11 04:31:40;0.00;0.00;0.62;0.00;0.00;0.62;1.70;1.30;;;27.20;24.90;;;;;;2256745;61;20450;-65
2023/05/11 04:34:27;0.00;0.00;0.62;0.00;0.00;0.62;1.50;1.10;;;27.20;24.90;;;;;;2255373;61;20442;-64
2023/05/11 04:37:12;0.00;0.00;0.62;0.00;0.00;0.62;1.73;1.13;;;27.20;24.90;;;;;;2256463;61;20773;-65
2023/05/11 04:39:58;0.00;0.00;0.62;0.00;0.00;0.62;1.80;1.20;;;27.20;24.90;;;;;;2255866;61;20436;-64
2023/05/11 04:42:43;0.00;0.00;0.62;0.00;0.00;0.62;1.40;0.90;;;27.20;24.90;;;;;;2255610;61;21106;-64
2023/05/11 04:45:32;0.00;0.00;0.62;0.00;0.00;0.62;1.50;0.90;;;27.20;24.90;;;;;;2256253;61;20420;-64
2023/05/11 04:48:18;0.00;0.00;0.62;0.00;0.00;0.62;1.63;1.07;;;27.20;24.90;;;;;;2255569;61;20365;-64
2023/05/11 04:51:05;0.00;0.00;0.62;0.00;0.00;0.62;1.50;1.00;;;27.20;24.90;;;;;;2255654;61;20381;-67
2023/05/11 04:53:52;0.00;0.00;0.62;0.00;0.00;0.62;1.37;0.97;;;27.20;24.90;;;;;;2256259;61;20366;-64
2023/05/11 04:56:40;0.00;0.00;0.62;0.00;0.00;0.62;1.50;1.00;;;27.20;24.90;;;;;;2255740;61;20393;-65
2023/05/11 04:59:24;0.00;0.00;0.62;0.00;0.00;0.62;1.90;1.30;;;27.20;24.90;;;;;;2255915;61;20382;-63
2023/05/11 05:02:09;0.00;0.00;0.62;0.00;0.00;0.62;1.37;0.93;;;27.20;24.90;;;;;;2256821;61;20921;-64
2023/05/11 05:04:53;0.00;0.00;0.62;0.00;0.00;0.62;1.50;1.20;;;27.20;24.90;;;;;;2255527;61;20378;-65
2023/05/11 05:07:40;0.00;0.00;0.62;0.00;0.00;0.62;1.40;0.90;;;27.20;24.90;;;;;;2257557;61;20388;-65
2023/05/11 05:10:24;0.00;0.00;0.62;0.00;0.00;0.62;1.63;1.23;;;27.20;24.90;;;;;;2256388;61;20381;-61
2023/05/11 05:13:09;0.00;0.00;0.62;0.00;0.00;0.62;1.47;1.10;;;27.20;24.90;;;;;;2257339;61;20362;-60
2023/05/11 05:15:54;0.00;0.00;0.62;0.00;0.00;0.62;1.80;1.10;;;27.20;24.90;;;;;;2257831;61;20361;-65
2023/05/11 05:18:39;0.00;0.00;0.62;0.00;0.00;0.62;1.70;1.20;;;27.20;24.90;;;;;;2256778;61;20392;-66
2023/05/11 05:21:24;0.00;0.00;0.62;0.00;0.00;0.62;1.40;1.00;;;27.20;24.90;;;;;;2257071;61;20353;-62
2023/05/11 05:24:11;0.00;0.00;0.62;0.00;0.00;0.62;1.60;1.17;;;27.20;25.50;;;;;;2257348;61;20810;-65
2023/05/11 05:26:56;0.00;0.00;0.62;0.00;0.00;0.62;1.80;1.10;;;27.20;24.90;;;;;;2256153;61;20949;-65
2023/05/11 05:29:40;0.00;0.00;0.62;0.00;0.00;0.62;1.50;1.30;;;27.20;24.90;;;;;;2257354;61;20413;-65
2023/05/11 05:32:26;0.00;0.00;0.62;0.00;0.00;0.62;1.60;1.10;;;27.20;25.50;;;;;;2257409;61;20473;-64
2023/05/11 05:35:12;0.00;0.00;0.62;0.00;0.00;0.62;1.70;1.20;;;27.20;24.90;;;;;;2256948;61;20890;-65
2023/05/11 05:37:58;0.00;0.00;0.62;0.00;0.00;0.62;1.50;1.20;;;27.20;24.90;;;;;;2257216;61;20353;-65
2023/05/11 05:40:44;0.00;0.00;0.62;0.00;0.00;0.62;2.47;1.47;;;27.20;24.90;;;;;;2271947;40;20455;-65
2023/05/11 05:43:29;0.00;0.00;0.62;0.00;0.00;0.62;1.60;1.20;;;27.20;24.90;;;;;;2260886;61;20408;-65
2023/05/11 05:46:14;0.00;0.00;0.62;0.00;0.00;0.62;1.50;1.13;;;27.20;24.90;;;;;;2260925;61;20412;-65
2023/05/11 05:48:59;0.00;0.00;0.62;0.00;0.00;0.62;2.00;1.10;;;27.20;24.90;;;;;;2259620;61;20357;-61
2023/05/11 05:51:45;0.00;0.00;0.62;0.00;0.00;0.62;1.47;1.10;;;27.20;24.90;;;;;;2261091;61;20423;-65
2023/05/11 05:54:30;0.00;0.00;0.62;0.00;0.00;0.62;2.10;1.60;;;27.20;24.90;;;;;;2260911;61;20811;-65
2023/05/11 05:57:16;0.00;0.00;0.62;0.00;0.00;0.62;2.00;1.30;;;27.20;24.90;;;;;;2261362;61;20361;-64
2023/05/11 06:00:03;0.00;0.00;0.62;0.00;0.00;0.62;1.67;1.30;;;27.20;24.90;;;;;;2260230;61;20416;-64
2023/05/11 06:02:57;0.00;0.00;0.62;0.00;0.00;0.62;1.60;1.30;;;27.20;24.90;;;;;;2260527;61;20428;-63
2023/05/11 06:05:44;0.00;0.00;0.62;0.00;0.00;0.62;2.47;1.60;;;27.20;25.00;;;;;;2261080;61;20361;-65
2023/05/11 06:08:29;0.00;0.00;0.62;0.00;0.00;0.62;1.80;1.47;;;27.20;25.00;;;;;;2261018;61;20399;-64
2023/05/11 06:11:14;0.00;0.00;0.62;0.00;0.00;0.62;1.80;1.60;;;27.20;25.00;;;;;;2260498;61;20427;-64
2023/05/11 06:14:02;0.00;0.00;0.62;0.00;0.00;0.62;1.93;1.43;;;27.20;25.00;;;;;;2260760;61;20396;-64
2023/05/11 06:16:47;0.00;0.00;0.62;0.00;0.00;0.62;1.53;1.17;;;27.20;25.00;;;;;;2261001;61;20381;-65
2023/05/11 06:19:32;0.00;0.00;0.62;0.00;0.00;0.62;1.60;1.33;;;27.20;25.00;;;;;;2260651;61;20400;-65
2023/05/11 06:22:17;0.00;0.00;0.62;0.00;0.00;0.62;1.70;1.60;;;27.20;25.00;;;;;;2260937;61;20366;-64
2023/05/11 06:25:03;0.00;0.00;0.62;0.00;0.00;0.62;1.80;1.40;;;27.20;25.00;;;;;;2260011;61;20381;-64
2023/05/11 06:27:48;0.00;0.00;0.62;0.00;0.00;0.62;1.90;1.70;;;27.10;24.90;;;;;;2260642;61;20369;-64
2023/05/11 06:30:35;0.00;0.00;0.62;0.00;0.00;0.62;1.90;1.70;;;27.20;25.00;;;;;;2260518;61;20540;-64
2023/05/11 06:33:20;0.00;0.00;0.62;0.00;0.00;0.62;2.13;1.63;;;27.20;25.00;;;;;;2259676;61;20361;-64
2023/05/11 06:36:06;0.00;0.00;0.62;0.00;0.00;0.62;2.10;1.70;;;27.20;25.00;;;;;;2260963;61;20908;-65
2023/05/11 06:38:53;0.00;0.00;0.62;0.00;0.00;0.62;2.10;1.67;;;27.20;25.00;;;;;;2260409;61;20357;-65
2023/05/11 06:41:38;0.00;0.00;0.62;0.00;0.00;0.62;2.33;1.63;;;27.20;25.00;;;;;;2260546;61;20372;-64
2023/05/11 06:44:23;0.00;0.00;0.62;0.00;0.00;0.62;1.90;1.70;;;27.20;25.00;;;;;;2261278;61;20440;-64
2023/05/11 06:47:12;0.00;0.00;0.62;0.00;0.00;0.62;2.10;1.90;;;27.20;25.00;;;;;;2260093;61;20389;-64
2023/05/11 06:49:57;0.00;0.00;0.62;0.00;0.00;0.62;2.40;1.90;;;27.20;25.00;;;;;;2260746;61;20470;-64
2023/05/11 06:52:42;0.00;0.00;0.62;0.00;0.00;0.62;2.27;2.07;;;27.20;25.00;;;;;;2261219;61;20365;-65
2023/05/11 06:55:27;0.00;0.00;0.62;0.00;0.00;0.62;2.57;2.13;;;27.20;25.00;;;;;;2259947;61;20433;-64
2023/05/11 06:58:12;0.00;0.00;0.62;0.00;0.00;0.62;2.40;2.20;;;27.20;25.00;;;;;;2261512;61;20415;-64
2023/05/11 07:00:57;0.00;0.00;0.62;0.00;0.00;0.62;1.83;1.43;;;27.20;25.00;;;;;;2260729;61;20399;-64
2023/05/11 07:03:43;0.00;0.00;0.62;0.00;0.00;0.62;2.10;1.90;;;27.20;25.00;;;;;;2260078;61;20393;-64
2023/05/11 07:06:28;0.00;0.00;0.62;0.00;0.00;0.62;2.20;2.00;;;27.20;25.00;;;;;;2261215;61;20400;-65
2023/05/11 07:09:13;0.00;0.00;0.62;0.00;0.00;0.62;2.90;1.87;;;27.20;25.00;;;;;;2259729;61;20400;-65
2023/05/11 07:11:57;0.00;0.00;0.62;0.00;0.00;0.62;2.30;2.07;;;27.20;25.10;;;;;;2261093;61;20366;-64
2023/05/11 07:14:42;0.00;0.00;0.62;0.00;0.00;0.62;2.70;2.23;;;27.20;25.00;;;;;;2260379;61;20448;-65
2023/05/11 07:17:27;0.00;0.00;0.62;0.00;0.00;0.62;3.10;2.83;;;27.20;25.00;;;;;;2260531;61;20856;-65
2023/05/11 07:20:13;0.00;0.00;0.62;0.00;0.00;0.62;2.50;2.30;;;27.20;25.00;;;;;;2260648;61;20929;-64
2023/05/11 07:22:58;0.00;0.00;0.62;0.00;0.00;0.62;3.53;3.20;;;27.20;25.10;;;;;;2260971;61;20897;-65
2023/05/11 07:25:43;0.00;0.00;0.62;0.00;0.00;0.62;3.13;2.87;;;27.10;25.00;;;;;;2260593;61;20810;-65
2023/05/11 07:28:28;0.00;0.00;0.62;0.00;0.00;0.62;2.63;2.43;;;27.20;25.00;;;;;;2261221;61;20365;-63
2023/05/11 07:31:37;0.00;0.00;0.62;0.00;0.00;0.62;3.10;2.80;;;27.20;25.10;;;;;;2313417;41;20416;-65
2023/05/11 07:34:23;0.00;0.00;0.62;0.00;0.00;0.62;3.20;2.90;;;27.20;25.10;;;;;;2262219;61;20388;-64
2023/05/11 07:37:09;0.00;0.00;0.62;0.00;0.00;0.62;3.53;3.23;;;27.20;25.10;;;;;;2261086;61;20368;-65
2023/05/11 07:39:54;0.00;0.00;0.62;0.00;0.00;0.62;2.60;2.40;;;27.20;25.10;;;;;;2259955;61;20434;-64
2023/05/11 07:42:39;0.00;0.00;0.62;0.00;0.00;0.62;2.53;2.33;;;27.20;25.10;;;;;;2260981;61;20364;-64
2023/05/11 07:45:23;0.00;0.00;0.62;0.00;0.00;0.62;4.00;2.93;;;27.20;25.10;;;;;;2260457;61;20396;-65
2023/05/11 07:48:08;0.00;0.00;0.62;0.00;0.00;0.62;2.80;2.50;;;27.20;25.10;;;;;;2260897;61;20418;-65
2023/05/11 07:53:37;0.00;0.00;0.62;0.00;0.00;0.62;2.40;2.20;;;27.20;25.10;;;;;;2253875;61;20694;-65
2023/05/11 07:56:22;0.00;0.00;0.62;0.00;0.00;0.62;2.87;2.57;;;27.20;25.10;;;;;;2253166;61;20367;-65
2023/05/11 07:59:08;0.00;0.00;0.62;0.00;0.00;0.62;2.50;2.30;;;27.20;25.10;;;;;;2252682;61;20955;-65
2023/05/11 08:01:53;0.00;0.00;0.62;0.00;0.00;0.62;3.80;2.83;;;27.20;25.10;;;;;;2252470;61;20467;-65
2023/05/11 08:04:38;0.00;0.00;0.62;0.00;0.00;0.62;2.50;2.30;;;27.20;25.10;;;;;;2252958;61;20390;-66
2023/05/11 08:07:23;0.00;0.00;0.62;0.00;0.00;0.62;2.30;2.10;;;27.20;25.10;;;;;;2252942;61;20984;-64
2023/05/11 08:10:10;0.00;0.00;0.62;0.00;0.00;0.62;2.50;2.30;;;27.20;25.20;;;;;;2252110;61;20379;-65
2023/05/11 08:12:55;0.00;0.00;0.62;0.00;0.00;0.62;2.70;2.50;;;27.20;25.20;;;;;;2252889;61;20402;-65
2023/05/11 08:15:40;0.00;0.00;0.62;0.00;0.00;0.62;2.13;1.90;;;27.20;25.20;;;;;;2252465;61;20357;-65
2023/05/11 08:18:24;0.00;0.00;0.62;0.00;0.00;0.62;3.20;2.20;;;27.20;25.20;;;;;;2252686;61;20780;-65
2023/05/11 08:21:09;0.00;0.00;0.62;0.00;0.00;0.62;2.30;2.00;;;27.20;25.20;;;;;;2252541;61;20390;-65
2023/05/11 08:23:53;0.00;0.00;0.62;0.00;0.00;0.62;2.33;2.13;;;27.20;25.20;;;;;;2252324;61;20915;-66
2023/05/11 08:26:39;0.00;0.00;0.62;0.00;0.00;0.62;2.57;2.13;;;27.20;25.20;;;;;;2253004;61;20363;-64
2023/05/11 08:29:26;0.00;0.00;0.62;0.00;0.00;0.62;2.80;2.30;;;27.20;25.20;;;;;;2252473;61;20433;-64
2023/05/11 08:32:11;0.00;0.00;0.62;0.00;0.00;0.62;2.13;1.83;;;27.20;25.20;;;;;;2252614;61;20362;-65
2023/05/11 08:34:56;0.00;0.00;0.62;0.00;0.00;0.62;2.30;2.00;;;27.20;25.20;;;;;;2252340;61;20358;-64
2023/05/11 08:37:40;0.00;0.00;0.62;0.00;0.00;0.62;1.87;1.67;;;27.20;25.20;;;;;;2252446;61;20370;-65
2023/05/11 08:40:27;0.00;0.00;0.62;0.00;0.00;0.62;1.83;1.60;;;27.20;25.20;;;;;;2252266;61;20379;-64
2023/05/11 08:43:14;0.00;0.00;0.62;0.00;0.00;0.62;2.23;2.03;;;27.20;25.20;;;;;;2252896;61;20381;-65
2023/05/11 08:46:03;0.00;0.00;0.62;0.00;0.00;0.62;2.10;1.77;;;27.20;25.20;;;;;;2252106;61;20429;-66
2023/05/11 08:48:49;0.00;0.00;0.62;0.00;0.00;0.62;2.27;2.07;;;27.20;25.20;;;;;;2252875;61;20391;-65
2023/05/11 08:51:34;0.00;0.00;0.62;0.00;0.00;0.62;1.90;1.70;;;27.20;25.20;;;;;;2252834;61;20457;-63
2023/05/11 08:54:18;0.00;0.00;0.62;0.00;0.00;0.62;2.00;1.70;;;27.20;25.20;;;;;;2251773;61;20513;-65
2023/05/11 08:57:04;0.00;0.00;0.62;0.00;0.00;0.62;2.40;1.97;;;27.20;25.20;;;;;;2252680;61;20366;-65
2023/05/11 08:59:52;0.00;0.00;0.62;0.00;0.00;0.62;2.20;1.80;;;27.20;25.30;;;;;;2251993;61;20942;-62
2023/05/11 09:02:37;0.00;0.00;0.62;0.00;0.00;0.62;2.20;1.80;;;27.20;25.30;;;;;;2252623;61;20367;-65
2023/05/11 09:05:22;0.00;0.00;0.62;0.00;0.00;0.62;2.00;1.80;;;27.20;25.30;;;;;;2252747;61;20785;-65
2023/05/11 09:08:10;0.00;0.00;0.62;0.00;0.00;0.62;3.10;2.37;;;27.20;25.30;;;;;;2251895;61;20598;-65
2023/05/11 09:10:55;0.00;0.00;0.62;0.00;0.00;0.62;2.63;2.43;;;27.20;25.30;;;;;;2252659;61;20430;-65
2023/05/11 09:13:40;0.00;0.00;0.62;0.00;0.00;0.62;3.10;2.70;;;27.10;25.70;;;;;;2252769;61;20410;-64
2023/05/11 09:16:26;0.00;0.00;0.62;0.00;0.00;0.62;3.50;2.60;;;27.20;25.30;;;;;;2252093;61;20363;-67
2023/05/11 09:19:17;0.00;0.00;0.62;0.00;0.00;0.62;2.40;2.00;;;27.20;25.30;;;;;;2252637;61;20393;-65
2023/05/11 09:22:04;0.00;0.00;0.62;0.00;0.00;0.62;2.60;2.40;;;27.20;25.30;;;;;;2252280;61;20398;-65
2023/05/11 09:24:49;0.00;0.00;0.62;0.00;0.00;0.62;2.23;2.03;;;27.20;25.30;;;;;;2252776;61;20437;-66
2023/05/11 09:27:33;0.00;0.00;0.62;0.00;0.00;0.62;3.10;2.80;;;27.10;25.20;;;;;;2252817;61;20747;-64
2023/05/11 09:30:20;0.00;0.00;0.62;0.00;0.00;0.62;2.47;2.23;;;27.20;25.30;;;;;;2251678;61;20384;-66
2023/05/11 09:33:07;0.00;0.00;0.62;0.00;0.00;0.62;2.40;2.20;;;27.10;25.30;;;;;;2252813;61;20362;-65
2023/05/11 09:35:52;0.00;0.00;0.62;0.00;0.00;0.62;2.33;1.93;;;27.20;25.30;;;;;;2252749;61;20454;-66
2023/05/11 09:38:37;0.00;0.00;0.62;0.00;0.00;0.62;3.40;2.00;;;27.10;25.30;;;;;;2251964;61;20934;-65
2023/05/11 09:41:22;0.00;0.00;0.62;0.00;0.00;0.62;2.93;2.40;;;27.20;25.30;;;;;;2252810;61;20906;-65
2023/05/11 09:44:09;0.00;0.00;0.62;0.00;0.00;0.62;2.37;2.07;;;27.20;25.30;;;;;;2252311;61;20406;-63
2023/05/11 09:47:10;0.00;0.00;0.62;0.00;0.00;0.62;2.77;2.30;;;27.20;25.90;;;;;;2252952;61;20447;-65
2023/05/11 09:49:56;0.00;0.00;0.62;0.00;0.00;0.62;2.13;1.87;;;27.20;25.40;;;;;;2252477;61;20410;-65
2023/05/11 09:52:50;0.00;0.00;0.62;0.00;0.00;0.62;2.07;1.87;;;27.10;25.30;;;;;;2252808;61;20366;-65
2023/05/11 09:55:35;0.00;0.00;0.62;0.00;0.00;0.62;2.80;2.20;;;27.10;25.30;;;;;;2253913;61;20410;-65
2023/05/11 09:58:20;0.00;0.00;0.62;0.00;0.00;0.62;2.20;2.00;;;27.20;25.40;;;;;;2253310;61;20430;-65
2023/05/11 10:01:05;0.00;0.00;0.62;0.00;0.00;0.62;2.00;1.53;;;27.20;25.40;;;;;;2252426;61;20467;-65
2023/05/11 10:03:54;0.00;0.00;0.62;0.00;0.00;0.62;2.20;1.90;;;27.20;25.40;;;;;;2253240;61;20482;-63
2023/05/11 10:06:46;0.00;0.00;0.62;0.00;0.00;0.62;1.80;1.33;;;27.20;25.40;;;;;;2252822;61;20791;-63
2023/05/11 10:09:31;0.00;0.00;0.62;0.00;0.00;0.62;1.93;1.70;;;27.20;25.40;;;;;;2253066;61;20401;-65
2023/05/11 10:12:18;0.00;0.00;0.62;0.00;0.00;0.62;2.70;2.17;;;27.10;25.30;;;;;;2253434;61;20927;-65
2023/05/11 10:15:05;0.00;0.00;0.62;0.00;0.00;0.62;1.90;1.67;;;27.20;25.40;;;;;;2252796;61;20907;-65
2023/05/11 10:17:52;0.00;0.00;0.62;0.00;0.00;0.62;2.27;1.80;;;27.20;25.40;;;;;;2253405;61;20385;-63
2023/05/11 10:20:37;0.00;0.00;0.62;0.00;0.00;0.62;2.70;1.90;;;27.20;25.50;;;;;;2252779;61;20430;-65
2023/05/11 10:23:24;0.00;0.00;0.62;0.00;0.00;0.62;2.77;2.00;;;27.20;25.50;;;;;;2252653;61;20437;-64
2023/05/11 10:26:09;0.00;0.00;0.62;0.00;0.00;0.62;2.10;1.90;;;27.20;25.50;;;;;;2253011;61;20376;-66
2023/05/11 10:28:54;0.00;0.00;0.62;0.00;0.00;0.62;2.20;1.83;;;27.20;25.50;;;;;;2252637;61;20390;-65
2023/05/11 10:31:39;0.00;0.00;0.62;0.00;0.00;0.62;1.97;1.50;;;27.20;25.50;;;;;;2253291;61;20437;-65
2023/05/11 10:34:25;0.00;0.00;0.62;0.00;0.00;0.62;1.80;1.60;;;27.20;25.50;;;;;;2253417;61;20385;-64
2023/05/11 10:37:11;0.00;0.00;0.62;0.00;0.00;0.62;1.80;1.50;;;27.20;25.50;;;;;;2252768;61;20389;-64
2023/05/11 10:39:58;0.00;0.00;0.62;0.00;0.00;0.62;2.20;1.70;;;27.20;25.50;;;;;;2253174;61;20479;-66
2023/05/11 10:43:36;0.00;0.00;0.62;0.00;0.00;0.62;5.63;1.80;;;27.20;25.50;;;;;;2253833;61;20370;-65
2023/05/11 10:46:41;0.00;0.00;0.62;0.00;0.00;0.62;1.90;1.70;;;27.20;25.50;;;;;;2252504;61;20414;-63
2023/05/11 10:49:56;0.00;0.00;0.62;0.00;0.00;0.62;1.90;1.57;;;27.20;25.50;;;;;;2252137;61;20463;-63
2023/05/11 10:53:03;0.00;0.00;0.62;0.00;0.00;0.62;2.30;1.70;;;27.20;25.50;;;;;;2251664;61;20430;-63
2023/05/11 10:56:11;0.00;0.00;0.62;0.00;0.00;0.62;2.00;1.70;;;27.20;25.50;;;;;;2252492;61;20755;-63
2023/05/11 10:59:18;0.00;0.00;0.62;0.00;0.00;0.62;1.63;1.40;;;27.20;25.60;;;;;;2251645;61;20815;-62
2023/05/11 11:02:03;0.00;0.00;0.62;0.00;0.00;0.62;2.07;1.70;;;27.20;25.60;;;;;;2252046;61;20402;-62